sensor_id;sensor_type;location;lat;lon;timestamp;temperature;humidity
36654;DHT22;22650;49.350;20.898;2024-03-22T00:00:50;5.20;99.90
36654;DHT22;22650;49.350;20.898;2024-03-22T00:03:24;5.30;99.90
36654;DHT22;22650;49.350;20.898;2024-03-22T00:05:55;5.30;99.90
36654;DHT22;22650;49.350;20.898;2024-03-22T00:08:28;5.30;99.90
36654;DHT22;22650;49.350;20.898;2024-03-22T00:11:00;5.30;99.90
36654;DHT22;22650;49.350;20.898;2024-03-22T00:13:33;5.40;99.90
36654;DHT22;22650;49.350;20.898;2024-03-22T00:16:05;5.30;99.90
36654;DHT22;22650;49.350;20.898;2024-03-22T00:18:39;5.40;99.90
36654;DHT22;22650;49.350;20.898;2024-03-22T00:21:11;5.40;99.90
36654;DHT22;22650;49.350;20.898;2024-03-22T00:23:44;5.40;99.90
36654;DHT22;22650;49.350;20.898;2024-03-22T00:26:16;5.40;99.90
36654;DHT22;22650;49.350;20.898;2024-03-22T00:28:49;5.50;99.90
36654;DHT22;22650;49.350;20.898;2024-03-22T00:31:20;5.50;99.90
36654;DHT22;22650;49.350;20.898;2024-03-22T00:33:54;5.50;99.90
36654;DHT22;22650;49.350;20.898;2024-03-22T00:36:26;5.50;99.90
36654;DHT22;22650;49.350;20.898;2024-03-22T00:38:59;5.50;99.90
36654;DHT22;22650;49.350;20.898;2024-03-22T00:41:30;5.60;99.90
36654;DHT22;22650;49.350;20.898;2024-03-22T00:44:03;5.60;99.90
36654;DHT22;22650;49.350;20.898;2024-03-22T00:46:34;5.60;99.90
36654;DHT22;22650;49.350;20.898;2024-03-22T00:49:09;5.60;99.90
36654;DHT22;22650;49.350;20.898;2024-03-22T00:51:40;5.60;99.90
36654;DHT22;22650;49.350;20.898;2024-03-22T00:54:14;5.60;99.90
36654;DHT22;22650;49.350;20.898;2024-03-22T00:56:46;5.60;99.90
36654;DHT22;22650;49.350;20.898;2024-03-22T00:59:18;5.60;99.90
36654;DHT22;22650;49.350;20.898;2024-03-22T01:01:50;5.70;99.90
36654;DHT22;22650;49.350;20.898;2024-03-22T01:04:24;5.70;99.90
36654;DHT22;22650;49.350;20.898;2024-03-22T01:06:55;5.70;99.90
36654;DHT22;22650;49.350;20.898;2024-03-22T01:09:28;5.70;99.90
36654;DHT22;22650;49.350;20.898;2024-03-22T01:11:59;5.70;99.90
36654;DHT22;22650;49.350;20.898;2024-03-22T01:14:32;5.70;99.90
36654;DHT22;22650;49.350;20.898;2024-03-22T01:17:04;5.70;99.90
36654;DHT22;22650;49.350;20.898;2024-03-22T01:19:38;5.70;99.90
36654;DHT22;22650;49.350;20.898;2024-03-22T01:22:09;5.70;99.90
36654;DHT22;22650;49.350;20.898;2024-03-22T01:24:42;5.70;99.90
36654;DHT22;22650;49.350;20.898;2024-03-22T01:27:13;5.70;99.90
36654;DHT22;22650;49.350;20.898;2024-03-22T01:29:46;5.80;99.90
36654;DHT22;22650;49.350;20.898;2024-03-22T01:32:18;5.70;99.90
36654;DHT22;22650;49.350;20.898;2024-03-22T01:34:52;5.70;99.90
36654;DHT22;22650;49.350;20.898;2024-03-22T01:37:23;5.80;99.90
36654;DHT22;22650;49.350;20.898;2024-03-22T01:39:56;5.70;99.90
36654;DHT22;22650;49.350;20.898;2024-03-22T01:42:27;5.80;99.90
36654;DHT22;22650;49.350;20.898;2024-03-22T01:45:00;5.80;99.90
36654;DHT22;22650;49.350;20.898;2024-03-22T01:47:32;5.80;99.90
36654;DHT22;22650;49.350;20.898;2024-03-22T01:50:07;5.80;99.90
36654;DHT22;22650;49.350;20.898;2024-03-22T01:52:39;5.80;99.90
36654;DHT22;22650;49.350;20.898;2024-03-22T01:55:12;5.80;99.90
36654;DHT22;22650;49.350;20.898;2024-03-22T01:57:44;5.80;99.90
36654;DHT22;22650;49.350;20.898;2024-03-22T02:00:19;5.90;99.90
36654;DHT22;22650;49.350;20.898;2024-03-22T02:02:50;5.80;99.90
36654;DHT22;22650;49.350;20.898;2024-03-22T02:05:24;5.90;99.90
36654;DHT22;22650;49.350;20.898;2024-03-22T02:07:56;5.80;99.90
36654;DHT22;22650;49.350;20.898;2024-03-22T02:10:28;5.90;99.90
36654;DHT22;22650;49.350;20.898;2024-03-22T02:13:00;5.90;99.90
36654;DHT22;22650;49.350;20.898;2024-03-22T02:15:32;5.90;99.90
36654;DHT22;22650;49.350;20.898;2024-03-22T02:18:04;5.90;99.90
36654;DHT22;22650;49.350;20.898;2024-03-22T02:20:38;5.90;99.90
36654;DHT22;22650;49.350;20.898;2024-03-22T02:23:11;5.90;99.90
36654;DHT22;22650;49.350;20.898;2024-03-22T02:25:45;5.90;99.90
36654;DHT22;22650;49.350;20.898;2024-03-22T02:28:17;5.90;99.90
36654;DHT22;22650;49.350;20.898;2024-03-22T02:30:49;5.90;99.90
36654;DHT22;22650;49.350;20.898;2024-03-22T02:33:21;5.90;99.90
36654;DHT22;22650;49.350;20.898;2024-03-22T02:35:53;6.00;99.90
36654;DHT22;22650;49.350;20.898;2024-03-22T02:38:25;6.00;99.90
36654;DHT22;22650;49.350;20.898;2024-03-22T02:40:59;6.00;99.90
36654;DHT22;22650;49.350;20.898;2024-03-22T02:43:30;6.00;99.90
36654;DHT22;22650;49.350;20.898;2024-03-22T02:46:03;6.00;99.90
36654;DHT22;22650;49.350;20.898;2024-03-22T02:48:35;6.00;99.90
36654;DHT22;22650;49.350;20.898;2024-03-22T02:51:07;6.00;99.90
36654;DHT22;22650;49.350;20.898;2024-03-22T02:53:39;6.00;99.90
36654;DHT22;22650;49.350;20.898;2024-03-22T02:56:13;5.90;99.90
36654;DHT22;22650;49.350;20.898;2024-03-22T02:58:44;5.90;99.90
36654;DHT22;22650;49.350;20.898;2024-03-22T03:01:17;5.90;99.90
36654;DHT22;22650;49.350;20.898;2024-03-22T03:03:49;5.90;99.90
36654;DHT22;22650;49.350;20.898;2024-03-22T03:06:21;6.00;99.90
36654;DHT22;22650;49.350;20.898;2024-03-22T03:08:53;6.00;99.90
36654;DHT22;22650;49.350;20.898;2024-03-22T03:11:27;6.00;99.90
36654;DHT22;22650;49.350;20.898;2024-03-22T03:13:58;6.00;99.90
36654;DHT22;22650;49.350;20.898;2024-03-22T03:16:31;6.00;99.90
36654;DHT22;22650;49.350;20.898;2024-03-22T03:19:02;6.00;99.90
36654;DHT22;22650;49.350;20.898;2024-03-22T03:21:35;6.00;99.90
36654;DHT22;22650;49.350;20.898;2024-03-22T03:24:07;6.00;99.90
36654;DHT22;22650;49.350;20.898;2024-03-22T03:26:41;6.00;99.90
36654;DHT22;22650;49.350;20.898;2024-03-22T03:29:13;6.00;99.90
36654;DHT22;22650;49.350;20.898;2024-03-22T03:31:46;6.00;99.90
36654;DHT22;22650;49.350;20.898;2024-03-22T03:34:17;6.00;99.90
36654;DHT22;22650;49.350;20.898;2024-03-22T03:36:51;6.00;99.90
36654;DHT22;22650;49.350;20.898;2024-03-22T03:39:22;6.10;99.90
36654;DHT22;22650;49.350;20.898;2024-03-22T03:41:56;6.10;99.90
36654;DHT22;22650;49.350;20.898;2024-03-22T03:44:28;6.10;99.90
36654;DHT22;22650;49.350;20.898;2024-03-22T03:47:01;6.10;99.90
36654;DHT22;22650;49.350;20.898;2024-03-22T03:49:33;6.10;99.90
36654;DHT22;22650;49.350;20.898;2024-03-22T03:52:05;6.10;99.90
36654;DHT22;22650;49.350;20.898;2024-03-22T03:54:37;6.10;99.90
36654;DHT22;22650;49.350;20.898;2024-03-22T03:57:11;6.20;99.90
36654;DHT22;22650;49.350;20.898;2024-03-22T03:59:43;6.20;99.90
36654;DHT22;22650;49.350;20.898;2024-03-22T04:02:16;6.20;99.90
36654;DHT22;22650;49.350;20.898;2024-03-22T04:04:47;6.20;99.90
36654;DHT22;22650;49.350;20.898;2024-03-22T04:07:20;6.20;99.90
36654;DHT22;22650;49.350;20.898;2024-03-22T04:09:51;6.20;99.90
36654;DHT22;22650;49.350;20.898;2024-03-22T04:12:25;6.20;99.90
36654;DHT22;22650;49.350;20.898;2024-03-22T04:14:57;6.20;99.90
36654;DHT22;22650;49.350;20.898;2024-03-22T04:17:29;6.30;99.90
36654;DHT22;22650;49.350;20.898;2024-03-22T04:20:01;6.30;99.90
36654;DHT22;22650;49.350;20.898;2024-03-22T04:22:35;6.30;99.90
36654;DHT22;22650;49.350;20.898;2024-03-22T04:25:07;6.30;99.90
36654;DHT22;22650;49.350;20.898;2024-03-22T04:27:41;6.30;99.90
36654;DHT22;22650;49.350;20.898;2024-03-22T04:30:13;6.30;99.90
36654;DHT22;22650;49.350;20.898;2024-03-22T04:32:46;6.30;99.90
36654;DHT22;22650;49.350;20.898;2024-03-22T04:35:17;6.30;99.90
36654;DHT22;22650;49.350;20.898;2024-03-22T04:37:50;6.30;99.90
36654;DHT22;22650;49.350;20.898;2024-03-22T04:40:23;6.30;99.90
36654;DHT22;22650;49.350;20.898;2024-03-22T04:42:57;6.30;99.90
36654;DHT22;22650;49.350;20.898;2024-03-22T04:45:29;6.40;99.90
36654;DHT22;22650;49.350;20.898;2024-03-22T04:48:04;6.40;99.90
36654;DHT22;22650;49.350;20.898;2024-03-22T04:50:35;6.40;99.90
36654;DHT22;22650;49.350;20.898;2024-03-22T04:53:08;6.40;99.90
36654;DHT22;22650;49.350;20.898;2024-03-22T04:55:40;6.30;99.90
36654;DHT22;22650;49.350;20.898;2024-03-22T04:58:18;6.30;99.90
36654;DHT22;22650;49.350;20.898;2024-03-22T05:00:56;6.30;99.90
36654;DHT22;22650;49.350;20.898;2024-03-22T05:03:29;6.40;99.90
36654;DHT22;22650;49.350;20.898;2024-03-22T05:06:00;6.40;99.90
36654;DHT22;22650;49.350;20.898;2024-03-22T05:08:34;6.30;99.90
36654;DHT22;22650;49.350;20.898;2024-03-22T05:11:06;6.30;99.90
36654;DHT22;22650;49.350;20.898;2024-03-22T05:13:40;6.40;99.90
36654;DHT22;22650;49.350;20.898;2024-03-22T05:16:11;6.40;99.90
36654;DHT22;22650;49.350;20.898;2024-03-22T05:18:44;6.40;99.90
36654;DHT22;22650;49.350;20.898;2024-03-22T05:21:16;6.40;99.90
36654;DHT22;22650;49.350;20.898;2024-03-22T05:23:48;6.40;99.90
36654;DHT22;22650;49.350;20.898;2024-03-22T05:26:20;6.40;99.90
36654;DHT22;22650;49.350;20.898;2024-03-22T05:28:55;6.40;99.90
36654;DHT22;22650;49.350;20.898;2024-03-22T05:31:26;6.50;99.90
36654;DHT22;22650;49.350;20.898;2024-03-22T05:33:59;6.50;99.90
36654;DHT22;22650;49.350;20.898;2024-03-22T05:36:30;6.50;99.90
36654;DHT22;22650;49.350;20.898;2024-03-22T05:39:03;6.50;99.90
36654;DHT22;22650;49.350;20.898;2024-03-22T05:41:35;6.60;99.90
36654;DHT22;22650;49.350;20.898;2024-03-22T05:44:09;6.60;99.90
36654;DHT22;22650;49.350;20.898;2024-03-22T05:46:41;6.50;99.90
36654;DHT22;22650;49.350;20.898;2024-03-22T05:49:13;6.50;99.90
36654;DHT22;22650;49.350;20.898;2024-03-22T05:51:45;6.60;99.90
36654;DHT22;22650;49.350;20.898;2024-03-22T05:54:17;6.60;99.90
36654;DHT22;22650;49.350;20.898;2024-03-22T05:56:49;6.60;99.90
36654;DHT22;22650;49.350;20.898;2024-03-22T05:59:23;6.70;99.90
36654;DHT22;22650;49.350;20.898;2024-03-22T06:01:54;6.70;99.90
36654;DHT22;22650;49.350;20.898;2024-03-22T06:04:27;6.70;99.90
36654;DHT22;22650;49.350;20.898;2024-03-22T06:06:59;6.70;99.90
36654;DHT22;22650;49.350;20.898;2024-03-22T06:09:34;6.70;99.90
36654;DHT22;22650;49.350;20.898;2024-03-22T06:12:08;6.80;99.90
36654;DHT22;22650;49.350;20.898;2024-03-22T06:14:42;6.80;99.90
36654;DHT22;22650;49.350;20.898;2024-03-22T06:17:14;6.90;99.90
36654;DHT22;22650;49.350;20.898;2024-03-22T06:19:47;6.90;99.90
36654;DHT22;22650;49.350;20.898;2024-03-22T06:22:19;7.00;99.90
36654;DHT22;22650;49.350;20.898;2024-03-22T06:24:51;7.00;99.90
36654;DHT22;22650;49.350;20.898;2024-03-22T06:27:23;7.10;99.90
36654;DHT22;22650;49.350;20.898;2024-03-22T06:29:57;7.10;99.90
36654;DHT22;22650;49.350;20.898;2024-03-22T06:32:29;7.20;99.90
36654;DHT22;22650;49.350;20.898;2024-03-22T06:35:01;7.30;99.90
36654;DHT22;22650;49.350;20.898;2024-03-22T06:37:37;7.30;99.90
36654;DHT22;22650;49.350;20.898;2024-03-22T06:40:11;7.30;99.90
36654;DHT22;22650;49.350;20.898;2024-03-22T06:42:42;7.40;99.90
36654;DHT22;22650;49.350;20.898;2024-03-22T06:45:17;7.40;99.90
36654;DHT22;22650;49.350;20.898;2024-03-22T06:47:48;7.40;99.90
36654;DHT22;22650;49.350;20.898;2024-03-22T06:50:22;7.50;99.90
36654;DHT22;22650;49.350;20.898;2024-03-22T06:52:58;7.50;99.90
36654;DHT22;22650;49.350;20.898;2024-03-22T06:55:31;7.40;99.90
36654;DHT22;22650;49.350;20.898;2024-03-22T06:58:02;7.50;99.90
36654;DHT22;22650;49.350;20.898;2024-03-22T07:00:36;7.50;99.90
36654;DHT22;22650;49.350;20.898;2024-03-22T07:03:08;7.50;99.90
36654;DHT22;22650;49.350;20.898;2024-03-22T07:05:40;7.50;99.90
36654;DHT22;22650;49.350;20.898;2024-03-22T07:08:12;7.50;99.90
36654;DHT22;22650;49.350;20.898;2024-03-22T07:10:45;7.60;99.90
36654;DHT22;22650;49.350;20.898;2024-03-22T07:13:17;7.50;99.90
36654;DHT22;22650;49.350;20.898;2024-03-22T07:15:51;7.60;99.90
36654;DHT22;22650;49.350;20.898;2024-03-22T07:18:23;7.60;99.90
36654;DHT22;22650;49.350;20.898;2024-03-22T07:20:56;7.60;99.90
36654;DHT22;22650;49.350;20.898;2024-03-22T07:23:29;7.70;99.90
36654;DHT22;22650;49.350;20.898;2024-03-22T07:26:02;7.70;99.90
36654;DHT22;22650;49.350;20.898;2024-03-22T07:28:33;7.70;99.90
36654;DHT22;22650;49.350;20.898;2024-03-22T07:31:07;7.80;99.90
36654;DHT22;22650;49.350;20.898;2024-03-22T07:33:39;7.80;99.90
36654;DHT22;22650;49.350;20.898;2024-03-22T07:36:15;7.80;99.90
36654;DHT22;22650;49.350;20.898;2024-03-22T07:38:47;7.80;99.90
36654;DHT22;22650;49.350;20.898;2024-03-22T07:41:20;7.90;99.90
36654;DHT22;22650;49.350;20.898;2024-03-22T07:43:52;7.90;99.90
36654;DHT22;22650;49.350;20.898;2024-03-22T07:46:26;7.90;99.90
36654;DHT22;22650;49.350;20.898;2024-03-22T07:48:57;7.90;99.90
36654;DHT22;22650;49.350;20.898;2024-03-22T07:51:30;8.00;99.90
36654;DHT22;22650;49.350;20.898;2024-03-22T07:54:02;8.00;99.90
36654;DHT22;22650;49.350;20.898;2024-03-22T07:56:35;7.90;99.90
36654;DHT22;22650;49.350;20.898;2024-03-22T07:59:06;8.00;99.90
36654;DHT22;22650;49.350;20.898;2024-03-22T08:01:40;8.00;99.90
36654;DHT22;22650;49.350;20.898;2024-03-22T08:04:12;8.00;99.90
36654;DHT22;22650;49.350;20.898;2024-03-22T08:06:45;8.10;99.90
36654;DHT22;22650;49.350;20.898;2024-03-22T08:09:17;8.20;99.90
36654;DHT22;22650;49.350;20.898;2024-03-22T08:11:49;8.30;99.90
36654;DHT22;22650;49.350;20.898;2024-03-22T08:14:21;8.40;99.90
36654;DHT22;22650;49.350;20.898;2024-03-22T08:16:55;8.40;99.90
36654;DHT22;22650;49.350;20.898;2024-03-22T08:19:26;8.50;99.90
36654;DHT22;22650;49.350;20.898;2024-03-22T08:21:59;8.60;99.90
36654;DHT22;22650;49.350;20.898;2024-03-22T08:24:30;8.60;99.90
36654;DHT22;22650;49.350;20.898;2024-03-22T08:27:06;8.70;99.90
36654;DHT22;22650;49.350;20.898;2024-03-22T08:29:40;8.80;99.90
36654;DHT22;22650;49.350;20.898;2024-03-22T08:32:14;8.80;99.90
36654;DHT22;22650;49.350;20.898;2024-03-22T08:34:46;8.90;99.90
36654;DHT22;22650;49.350;20.898;2024-03-22T08:37:18;9.00;99.90
36654;DHT22;22650;49.350;20.898;2024-03-22T08:39:50;9.00;99.90
36654;DHT22;22650;49.350;20.898;2024-03-22T08:42:23;9.10;99.90
36654;DHT22;22650;49.350;20.898;2024-03-22T08:44:54;9.10;99.90
36654;DHT22;22650;49.350;20.898;2024-03-22T08:47:29;9.20;99.90
36654;DHT22;22650;49.350;20.898;2024-03-22T08:50:01;9.30;99.90
36654;DHT22;22650;49.350;20.898;2024-03-22T08:52:37;9.30;99.90
36654;DHT22;22650;49.350;20.898;2024-03-22T08:55:10;9.40;99.90
36654;DHT22;22650;49.350;20.898;2024-03-22T08:57:44;9.40;99.90
36654;DHT22;22650;49.350;20.898;2024-03-22T09:00:17;9.50;99.90
36654;DHT22;22650;49.350;20.898;2024-03-22T09:02:51;9.50;99.90
36654;DHT22;22650;49.350;20.898;2024-03-22T09:05:23;9.60;99.90
36654;DHT22;22650;49.350;20.898;2024-03-22T09:07:59;9.70;99.90
36654;DHT22;22650;49.350;20.898;2024-03-22T09:10:31;9.80;99.90
36654;DHT22;22650;49.350;20.898;2024-03-22T09:13:05;9.90;99.90
36654;DHT22;22650;49.350;20.898;2024-03-22T09:15:37;10.00;99.90
36654;DHT22;22650;49.350;20.898;2024-03-22T09:18:12;10.10;99.90
36654;DHT22;22650;49.350;20.898;2024-03-22T09:20:44;10.20;99.90
36654;DHT22;22650;49.350;20.898;2024-03-22T09:23:17;10.40;99.90
36654;DHT22;22650;49.350;20.898;2024-03-22T09:25:48;10.50;99.90
36654;DHT22;22650;49.350;20.898;2024-03-22T09:28:21;10.80;99.90
36654;DHT22;22650;49.350;20.898;2024-03-22T09:30:53;11.00;99.90
36654;DHT22;22650;49.350;20.898;2024-03-22T09:33:27;11.20;99.90
36654;DHT22;22650;49.350;20.898;2024-03-22T09:35:58;11.40;99.90
36654;DHT22;22650;49.350;20.898;2024-03-22T09:38:31;11.60;99.90
36654;DHT22;22650;49.350;20.898;2024-03-22T09:41:03;11.80;99.90
36654;DHT22;22650;49.350;20.898;2024-03-22T09:43:37;11.90;99.90
36654;DHT22;22650;49.350;20.898;2024-03-22T09:46:11;12.00;99.90
36654;DHT22;22650;49.350;20.898;2024-03-22T09:48:47;12.20;99.90
36654;DHT22;22650;49.350;20.898;2024-03-22T09:51:21;12.40;99.90
36654;DHT22;22650;49.350;20.898;2024-03-22T09:53:54;12.50;99.90
36654;DHT22;22650;49.350;20.898;2024-03-22T09:56:27;12.60;99.90
36654;DHT22;22650;49.350;20.898;2024-03-22T09:59:00;12.70;99.90
36654;DHT22;22650;49.350;20.898;2024-03-22T10:01:33;12.70;99.90
36654;DHT22;22650;49.350;20.898;2024-03-22T10:04:08;12.80;99.90
36654;DHT22;22650;49.350;20.898;2024-03-22T10:06:40;12.90;99.90
36654;DHT22;22650;49.350;20.898;2024-03-22T10:09:13;12.90;99.90
36654;DHT22;22650;49.350;20.898;2024-03-22T10:11:47;12.80;99.90
36654;DHT22;22650;49.350;20.898;2024-03-22T10:14:20;12.80;99.90
36654;DHT22;22650;49.350;20.898;2024-03-22T10:16:51;13.00;99.90
36654;DHT22;22650;49.350;20.898;2024-03-22T10:19:27;13.00;99.90
36654;DHT22;22650;49.350;20.898;2024-03-22T10:22:02;13.20;99.90
36654;DHT22;22650;49.350;20.898;2024-03-22T10:24:35;13.40;99.90
36654;DHT22;22650;49.350;20.898;2024-03-22T10:27:06;13.60;99.90
36654;DHT22;22650;49.350;20.898;2024-03-22T10:29:40;13.70;99.90
36654;DHT22;22650;49.350;20.898;2024-03-22T10:32:12;13.80;99.90
36654;DHT22;22650;49.350;20.898;2024-03-22T10:34:46;14.00;99.90
36654;DHT22;22650;49.350;20.898;2024-03-22T10:37:18;14.20;99.90
36654;DHT22;22650;49.350;20.898;2024-03-22T10:39:54;14.40;99.90
36654;DHT22;22650;49.350;20.898;2024-03-22T10:42:26;14.60;99.90
36654;DHT22;22650;49.350;20.898;2024-03-22T10:44:59;14.80;99.90
36654;DHT22;22650;49.350;20.898;2024-03-22T10:47:31;15.00;99.90
36654;DHT22;22650;49.350;20.898;2024-03-22T10:50:07;15.20;99.90
36654;DHT22;22650;49.350;20.898;2024-03-22T10:52:46;15.30;99.90
36654;DHT22;22650;49.350;20.898;2024-03-22T10:55:24;15.30;99.90
36654;DHT22;22650;49.350;20.898;2024-03-22T10:58:00;15.20;99.90
36654;DHT22;22650;49.350;20.898;2024-03-22T11:00:45;15.30;99.90
36654;DHT22;22650;49.350;20.898;2024-03-22T11:03:25;15.30;99.90
36654;DHT22;22650;49.350;20.898;2024-03-22T11:06:01;15.40;99.90
36654;DHT22;22650;49.350;20.898;2024-03-22T11:08:32;15.50;99.90
36654;DHT22;22650;49.350;20.898;2024-03-22T11:11:12;15.50;99.90
36654;DHT22;22650;49.350;20.898;2024-03-22T11:13:47;15.60;99.90
36654;DHT22;22650;49.350;20.898;2024-03-22T11:16:20;15.70;99.90
36654;DHT22;22650;49.350;20.898;2024-03-22T11:18:52;15.80;99.90
36654;DHT22;22650;49.350;20.898;2024-03-22T11:21:26;15.80;99.30
36654;DHT22;22650;49.350;20.898;2024-03-22T11:23:57;15.80;99.00
36654;DHT22;22650;49.350;20.898;2024-03-22T11:26:30;15.80;98.30
36654;DHT22;22650;49.350;20.898;2024-03-22T11:29:02;15.80;98.70
36654;DHT22;22650;49.350;20.898;2024-03-22T11:31:34;15.70;98.40
36654;DHT22;22650;49.350;20.898;2024-03-22T11:34:06;15.70;97.80
36654;DHT22;22650;49.350;20.898;2024-03-22T11:36:40;15.60;97.80
36654;DHT22;22650;49.350;20.898;2024-03-22T11:39:11;15.60;97.60
36654;DHT22;22650;49.350;20.898;2024-03-22T11:41:44;15.70;98.00
36654;DHT22;22650;49.350;20.898;2024-03-22T11:44:16;15.70;97.50
36654;DHT22;22650;49.350;20.898;2024-03-22T11:46:50;15.70;97.50
36654;DHT22;22650;49.350;20.898;2024-03-22T11:49:22;15.80;97.00
36654;DHT22;22650;49.350;20.898;2024-03-22T11:51:57;15.80;96.00
36654;DHT22;22650;49.350;20.898;2024-03-22T11:54:28;15.90;97.00
36654;DHT22;22650;49.350;20.898;2024-03-22T11:57:02;15.90;97.00
36654;DHT22;22650;49.350;20.898;2024-03-22T11:59:34;16.10;96.20
36654;DHT22;22650;49.350;20.898;2024-03-22T12:02:09;16.10;95.00
36654;DHT22;22650;49.350;20.898;2024-03-22T12:04:41;16.10;94.70
36654;DHT22;22650;49.350;20.898;2024-03-22T12:07:16;16.20;95.00
36654;DHT22;22650;49.350;20.898;2024-03-22T12:09:48;16.20;93.90
36654;DHT22;22650;49.350;20.898;2024-03-22T12:12:25;16.20;93.80
36654;DHT22;22650;49.350;20.898;2024-03-22T12:14:56;16.10;94.00
36654;DHT22;22650;49.350;20.898;2024-03-22T12:17:29;16.10;94.30
36654;DHT22;22650;49.350;20.898;2024-03-22T12:20:01;16.10;93.80
36654;DHT22;22650;49.350;20.898;2024-03-22T12:22:36;16.10;93.70
36654;DHT22;22650;49.350;20.898;2024-03-22T12:25:08;16.10;92.60
36654;DHT22;22650;49.350;20.898;2024-03-22T12:27:42;16.10;92.50
36654;DHT22;22650;49.350;20.898;2024-03-22T12:30:15;16.20;92.90
36654;DHT22;22650;49.350;20.898;2024-03-22T12:32:48;16.30;93.50
36654;DHT22;22650;49.350;20.898;2024-03-22T12:35:19;16.30;92.90
36654;DHT22;22650;49.350;20.898;2024-03-22T12:37:53;16.30;92.10
36654;DHT22;22650;49.350;20.898;2024-03-22T12:40:27;16.30;92.00
36654;DHT22;22650;49.350;20.898;2024-03-22T12:43:00;16.30;92.10
36654;DHT22;22650;49.350;20.898;2024-03-22T12:45:31;16.50;92.00
36654;DHT22;22650;49.350;20.898;2024-03-22T12:48:05;16.50;92.10
36654;DHT22;22650;49.350;20.898;2024-03-22T12:50:36;16.50;92.40
36654;DHT22;22650;49.350;20.898;2024-03-22T12:53:11;16.50;92.50
36654;DHT22;22650;49.350;20.898;2024-03-22T12:55:43;16.60;94.00
36654;DHT22;22650;49.350;20.898;2024-03-22T12:58:15;16.50;93.50
36654;DHT22;22650;49.350;20.898;2024-03-22T13:00:48;16.60;93.70
36654;DHT22;22650;49.350;20.898;2024-03-22T13:03:21;16.40;93.10
36654;DHT22;22650;49.350;20.898;2024-03-22T13:05:53;16.40;93.00
36654;DHT22;22650;49.350;20.898;2024-03-22T13:08:27;16.30;92.80
36654;DHT22;22650;49.350;20.898;2024-03-22T13:10:58;16.20;93.00
36654;DHT22;22650;49.350;20.898;2024-03-22T13:13:31;16.20;92.60
36654;DHT22;22650;49.350;20.898;2024-03-22T13:16:03;16.20;92.90
36654;DHT22;22650;49.350;20.898;2024-03-22T13:18:37;16.10;92.60
36654;DHT22;22650;49.350;20.898;2024-03-22T13:21:10;15.90;92.10
36654;DHT22;22650;49.350;20.898;2024-03-22T13:23:44;15.90;92.70
36654;DHT22;22650;49.350;20.898;2024-03-22T13:26:16;15.80;92.90
36654;DHT22;22650;49.350;20.898;2024-03-22T13:28:48;15.80;93.10
36654;DHT22;22650;49.350;20.898;2024-03-22T13:31:20;15.80;93.20
36654;DHT22;22650;49.350;20.898;2024-03-22T13:33:53;15.80;93.10
36654;DHT22;22650;49.350;20.898;2024-03-22T13:36:24;15.80;93.30
36654;DHT22;22650;49.350;20.898;2024-03-22T13:38:58;15.70;92.90
36654;DHT22;22650;49.350;20.898;2024-03-22T13:41:30;15.70;93.50
36654;DHT22;22650;49.350;20.898;2024-03-22T13:44:03;15.70;93.20
36654;DHT22;22650;49.350;20.898;2024-03-22T13:46:34;15.70;92.80
36654;DHT22;22650;49.350;20.898;2024-03-22T13:49:14;15.70;92.90
36654;DHT22;22650;49.350;20.898;2024-03-22T13:51:47;15.80;92.50
36654;DHT22;22650;49.350;20.898;2024-03-22T13:54:21;15.70;92.30
36654;DHT22;22650;49.350;20.898;2024-03-22T13:56:53;15.80;92.40
36654;DHT22;22650;49.350;20.898;2024-03-22T13:59:25;15.70;93.20
36654;DHT22;22650;49.350;20.898;2024-03-22T14:01:57;15.70;92.60
36654;DHT22;22650;49.350;20.898;2024-03-22T14:04:30;15.70;92.90
36654;DHT22;22650;49.350;20.898;2024-03-22T14:07:02;15.60;92.60
36654;DHT22;22650;49.350;20.898;2024-03-22T14:09:37;15.70;93.00
36654;DHT22;22650;49.350;20.898;2024-03-22T14:12:09;15.60;92.40
36654;DHT22;22650;49.350;20.898;2024-03-22T14:14:41;15.50;92.90
36654;DHT22;22650;49.350;20.898;2024-03-22T14:17:13;15.40;92.90
36654;DHT22;22650;49.350;20.898;2024-03-22T14:19:45;15.30;93.10
36654;DHT22;22650;49.350;20.898;2024-03-22T14:22:17;15.30;93.40
36654;DHT22;22650;49.350;20.898;2024-03-22T14:24:51;15.10;93.40
36654;DHT22;22650;49.350;20.898;2024-03-22T14:27:23;15.00;93.30
36654;DHT22;22650;49.350;20.898;2024-03-22T14:29:55;15.10;93.70
36654;DHT22;22650;49.350;20.898;2024-03-22T14:32:27;15.00;93.90
36654;DHT22;22650;49.350;20.898;2024-03-22T14:34:59;14.90;94.10
36654;DHT22;22650;49.350;20.898;2024-03-22T14:37:31;14.90;94.30
36654;DHT22;22650;49.350;20.898;2024-03-22T14:40:07;14.80;94.40
36654;DHT22;22650;49.350;20.898;2024-03-22T14:42:41;14.80;94.60
36654;DHT22;22650;49.350;20.898;2024-03-22T14:45:14;14.80;95.10
36654;DHT22;22650;49.350;20.898;2024-03-22T14:47:52;14.70;95.00
36654;DHT22;22650;49.350;20.898;2024-03-22T14:50:25;14.60;95.70
36654;DHT22;22650;49.350;20.898;2024-03-22T14:52:57;14.60;95.60
36654;DHT22;22650;49.350;20.898;2024-03-22T14:55:31;14.70;95.80
36654;DHT22;22650;49.350;20.898;2024-03-22T14:58:05;14.60;95.70
36654;DHT22;22650;49.350;20.898;2024-03-22T15:00:38;14.60;96.10
36654;DHT22;22650;49.350;20.898;2024-03-22T15:03:11;14.70;96.30
36654;DHT22;22650;49.350;20.898;2024-03-22T15:05:43;14.60;96.00
36654;DHT22;22650;49.350;20.898;2024-03-22T15:08:17;14.70;96.10
36654;DHT22;22650;49.350;20.898;2024-03-22T15:10:50;14.60;96.20
36654;DHT22;22650;49.350;20.898;2024-03-22T15:13:23;14.60;96.10
36654;DHT22;22650;49.350;20.898;2024-03-22T15:15:56;14.60;96.60
36654;DHT22;22650;49.350;20.898;2024-03-22T15:18:29;14.60;96.50
36654;DHT22;22650;49.350;20.898;2024-03-22T15:21:03;14.50;96.50
36654;DHT22;22650;49.350;20.898;2024-03-22T15:23:38;14.40;96.60
36654;DHT22;22650;49.350;20.898;2024-03-22T15:26:13;14.40;96.60
36654;DHT22;22650;49.350;20.898;2024-03-22T15:28:46;14.30;96.60
36654;DHT22;22650;49.350;20.898;2024-03-22T15:31:19;14.20;96.60
36654;DHT22;22650;49.350;20.898;2024-03-22T15:33:52;14.20;97.20
36654;DHT22;22650;49.350;20.898;2024-03-22T15:36:24;14.10;97.00
36654;DHT22;22650;49.350;20.898;2024-03-22T15:38:56;14.00;97.20
36654;DHT22;22650;49.350;20.898;2024-03-22T15:41:30;13.90;97.10
36654;DHT22;22650;49.350;20.898;2024-03-22T15:44:01;13.80;97.70
36654;DHT22;22650;49.350;20.898;2024-03-22T15:46:34;13.70;97.60
36654;DHT22;22650;49.350;20.898;2024-03-22T15:49:06;13.70;98.50
36654;DHT22;22650;49.350;20.898;2024-03-22T15:51:38;13.70;98.70
36654;DHT22;22650;49.350;20.898;2024-03-22T15:54:12;13.60;98.40
36654;DHT22;22650;49.350;20.898;2024-03-22T15:56:48;13.60;98.60
36654;DHT22;22650;49.350;20.898;2024-03-22T15:59:19;13.60;99.20